sensor_id;sensor_type;location;lat;lon;timestamp;temperature;humidity
12043;DHT22;6082;49.306;12.862;2023-06-10T00:00:46;17.10;99.90
12043;DHT22;6082;49.306;12.862;2023-06-10T00:03:12;17.10;99.90
12043;DHT22;6082;49.306;12.862;2023-06-10T00:05:40;17.00;99.90
12043;DHT22;6082;49.306;12.862;2023-06-10T00:08:06;16.90;99.90
12043;DHT22;6082;49.306;12.862;2023-06-10T00:10:37;16.90;99.90
12043;DHT22;6082;49.306;12.862;2023-06-10T00:13:04;16.90;99.90
12043;DHT22;6082;49.306;12.862;2023-06-10T00:15:31;16.90;99.90
12043;DHT22;6082;49.306;12.862;2023-06-10T00:17:57;16.90;99.90
12043;DHT22;6082;49.306;12.862;2023-06-10T00:20:23;16.90;99.90
12043;DHT22;6082;49.306;12.862;2023-06-10T00:22:49;16.80;99.90
12043;DHT22;6082;49.306;12.862;2023-06-10T00:25:15;16.80;99.90
12043;DHT22;6082;49.306;12.862;2023-06-10T00:27:41;16.80;99.90
12043;DHT22;6082;49.306;12.862;2023-06-10T00:30:07;16.70;99.90
12043;DHT22;6082;49.306;12.862;2023-06-10T00:32:34;16.70;99.90
12043;DHT22;6082;49.306;12.862;2023-06-10T00:35:00;16.70;99.90
12043;DHT22;6082;49.306;12.862;2023-06-10T00:37:25;16.70;99.90
12043;DHT22;6082;49.306;12.862;2023-06-10T00:39:52;16.70;99.90
12043;DHT22;6082;49.306;12.862;2023-06-10T00:42:18;16.60;99.90
12043;DHT22;6082;49.306;12.862;2023-06-10T00:44:44;16.60;99.90
12043;DHT22;6082;49.306;12.862;2023-06-10T00:47:36;16.50;99.90
12043;DHT22;6082;49.306;12.862;2023-06-10T00:50:12;16.50;99.90
12043;DHT22;6082;49.306;12.862;2023-06-10T00:52:38;16.40;99.90
12043;DHT22;6082;49.306;12.862;2023-06-10T00:55:04;16.40;99.90
12043;DHT22;6082;49.306;12.862;2023-06-10T00:57:31;16.30;99.90
12043;DHT22;6082;49.306;12.862;2023-06-10T00:59:58;16.30;99.90
12043;DHT22;6082;49.306;12.862;2023-06-10T01:02:23;16.30;99.90
12043;DHT22;6082;49.306;12.862;2023-06-10T01:04:49;16.30;99.90
12043;DHT22;6082;49.306;12.862;2023-06-10T01:10:28;16.10;99.90
12043;DHT22;6082;49.306;12.862;2023-06-10T01:13:02;16.00;99.90
12043;DHT22;6082;49.306;12.862;2023-06-10T01:15:32;15.90;99.90
12043;DHT22;6082;49.306;12.862;2023-06-10T01:18:06;15.90;99.90
12043;DHT22;6082;49.306;12.862;2023-06-10T01:20:36;15.80;99.90
12043;DHT22;6082;49.306;12.862;2023-06-10T01:23:05;15.70;99.90
12043;DHT22;6082;49.306;12.862;2023-06-10T01:25:32;15.70;99.90
12043;DHT22;6082;49.306;12.862;2023-06-10T01:28:41;15.70;99.90
12043;DHT22;6082;49.306;12.862;2023-06-10T01:33:49;15.70;99.90
12043;DHT22;6082;49.306;12.862;2023-06-10T01:36:17;15.70;99.90
12043;DHT22;6082;49.306;12.862;2023-06-10T01:38:46;15.70;99.90
12043;DHT22;6082;49.306;12.862;2023-06-10T01:41:14;15.70;99.90
12043;DHT22;6082;49.306;12.862;2023-06-10T01:43:43;15.70;99.90
12043;DHT22;6082;49.306;12.862;2023-06-10T01:46:09;15.70;99.90
12043;DHT22;6082;49.306;12.862;2023-06-10T01:48:37;15.60;99.90
12043;DHT22;6082;49.306;12.862;2023-06-10T01:51:03;15.70;99.90
12043;DHT22;6082;49.306;12.862;2023-06-10T01:53:29;15.60;99.90
12043;DHT22;6082;49.306;12.862;2023-06-10T01:55:55;15.60;99.90
12043;DHT22;6082;49.306;12.862;2023-06-10T01:58:21;15.60;99.90
12043;DHT22;6082;49.306;12.862;2023-06-10T02:00:47;15.50;99.90
12043;DHT22;6082;49.306;12.862;2023-06-10T02:03:13;15.50;99.90
12043;DHT22;6082;49.306;12.862;2023-06-10T02:05:39;15.50;99.90
12043;DHT22;6082;49.306;12.862;2023-06-10T02:08:05;15.40;99.90
12043;DHT22;6082;49.306;12.862;2023-06-10T02:10:31;15.30;99.90
12043;DHT22;6082;49.306;12.862;2023-06-10T02:12:56;15.30;99.90
12043;DHT22;6082;49.306;12.862;2023-06-10T02:15:22;15.30;99.90
12043;DHT22;6082;49.306;12.862;2023-06-10T02:17:48;15.20;99.90
12043;DHT22;6082;49.306;12.862;2023-06-10T02:20:19;15.20;99.90
12043;DHT22;6082;49.306;12.862;2023-06-10T02:22:46;15.20;99.90
12043;DHT22;6082;49.306;12.862;2023-06-10T02:25:12;15.10;99.90
12043;DHT22;6082;49.306;12.862;2023-06-10T02:27:38;15.10;99.90
12043;DHT22;6082;49.306;12.862;2023-06-10T02:30:04;15.10;99.90
12043;DHT22;6082;49.306;12.862;2023-06-10T02:32:30;15.10;99.90
12043;DHT22;6082;49.306;12.862;2023-06-10T02:34:56;15.10;99.90
12043;DHT22;6082;49.306;12.862;2023-06-10T02:37:21;15.10;99.90
12043;DHT22;6082;49.306;12.862;2023-06-10T02:39:47;15.10;99.90
12043;DHT22;6082;49.306;12.862;2023-06-10T02:42:13;15.10;99.90
12043;DHT22;6082;49.306;12.862;2023-06-10T02:44:39;15.00;99.90
12043;DHT22;6082;49.306;12.862;2023-06-10T02:47:05;15.10;99.90
12043;DHT22;6082;49.306;12.862;2023-06-10T02:49:31;15.10;99.90
12043;DHT22;6082;49.306;12.862;2023-06-10T02:51:56;15.10;99.90
12043;DHT22;6082;49.306;12.862;2023-06-10T02:54:23;15.00;99.90
12043;DHT22;6082;49.306;12.862;2023-06-10T02:56:49;15.00;99.90
12043;DHT22;6082;49.306;12.862;2023-06-10T02:59:15;15.00;99.90
12043;DHT22;6082;49.306;12.862;2023-06-10T03:01:41;15.00;99.90
12043;DHT22;6082;49.306;12.862;2023-06-10T03:04:07;15.00;99.90
12043;DHT22;6082;49.306;12.862;2023-06-10T03:06:34;15.00;99.90
12043;DHT22;6082;49.306;12.862;2023-06-10T03:09:01;14.90;99.90
12043;DHT22;6082;49.306;12.862;2023-06-10T03:11:26;14.90;99.90
12043;DHT22;6082;49.306;12.862;2023-06-10T03:13:52;14.80;99.90
12043;DHT22;6082;49.306;12.862;2023-06-10T03:16:21;14.90;99.90
12043;DHT22;6082;49.306;12.862;2023-06-10T03:18:48;14.90;99.90
12043;DHT22;6082;49.306;12.862;2023-06-10T03:21:14;15.00;99.90
12043;DHT22;6082;49.306;12.862;2023-06-10T03:23:40;15.00;99.90
12043;DHT22;6082;49.306;12.862;2023-06-10T03:26:10;15.00;99.90
12043;DHT22;6082;49.306;12.862;2023-06-10T03:28:37;15.00;99.90
12043;DHT22;6082;49.306;12.862;2023-06-10T03:31:02;15.10;99.90
12043;DHT22;6082;49.306;12.862;2023-06-10T03:33:28;15.00;99.90
12043;DHT22;6082;49.306;12.862;2023-06-10T03:35:54;15.10;99.90
12043;DHT22;6082;49.306;12.862;2023-06-10T03:38:20;15.10;99.90
12043;DHT22;6082;49.306;12.862;2023-06-10T03:40:46;15.10;99.90
12043;DHT22;6082;49.306;12.862;2023-06-10T03:43:11;15.10;99.90
12043;DHT22;6082;49.306;12.862;2023-06-10T03:45:37;15.20;99.90
12043;DHT22;6082;49.306;12.862;2023-06-10T03:48:03;15.20;99.90
12043;DHT22;6082;49.306;12.862;2023-06-10T03:50:30;15.10;99.90
12043;DHT22;6082;49.306;12.862;2023-06-10T03:52:56;15.20;99.90
12043;DHT22;6082;49.306;12.862;2023-06-10T03:55:22;15.20;99.90
12043;DHT22;6082;49.306;12.862;2023-06-10T03:57:49;15.20;99.90
12043;DHT22;6082;49.306;12.862;2023-06-10T04:00:16;15.20;99.90
12043;DHT22;6082;49.306;12.862;2023-06-10T04:02:43;15.20;99.90
12043;DHT22;6082;49.306;12.862;2023-06-10T04:05:15;15.20;99.90
12043;DHT22;6082;49.306;12.862;2023-06-10T04:07:41;15.20;99.90
12043;DHT22;6082;49.306;12.862;2023-06-10T04:10:08;15.20;99.90
12043;DHT22;6082;49.306;12.862;2023-06-10T04:12:35;15.20;99.90
12043;DHT22;6082;49.306;12.862;2023-06-10T04:15:02;15.30;99.90
12043;DHT22;6082;49.306;12.862;2023-06-10T04:17:28;15.30;99.90
12043;DHT22;6082;49.306;12.862;2023-06-10T04:19:53;15.30;99.90
12043;DHT22;6082;49.306;12.862;2023-06-10T04:22:20;15.40;99.90
12043;DHT22;6082;49.306;12.862;2023-06-10T04:24:46;15.40;99.90
12043;DHT22;6082;49.306;12.862;2023-06-10T04:27:12;15.40;99.90
12043;DHT22;6082;49.306;12.862;2023-06-10T04:29:38;15.40;99.90
12043;DHT22;6082;49.306;12.862;2023-06-10T04:32:04;15.50;99.90
12043;DHT22;6082;49.306;12.862;2023-06-10T04:34:33;15.50;99.90
12043;DHT22;6082;49.306;12.862;2023-06-10T04:36:59;15.60;99.90
12043;DHT22;6082;49.306;12.862;2023-06-10T04:39:24;15.60;99.90
12043;DHT22;6082;49.306;12.862;2023-06-10T04:41:50;15.60;99.90
12043;DHT22;6082;49.306;12.862;2023-06-10T04:44:16;15.60;99.90
12043;DHT22;6082;49.306;12.862;2023-06-10T04:46:42;15.70;99.90
12043;DHT22;6082;49.306;12.862;2023-06-10T04:49:08;15.70;99.90
12043;DHT22;6082;49.306;12.862;2023-06-10T04:51:34;15.70;99.90
12043;DHT22;6082;49.306;12.862;2023-06-10T04:54:00;15.80;99.90
12043;DHT22;6082;49.306;12.862;2023-06-10T04:56:29;15.80;99.90
12043;DHT22;6082;49.306;12.862;2023-06-10T04:58:56;15.90;99.90
12043;DHT22;6082;49.306;12.862;2023-06-10T05:01:23;15.90;99.90
12043;DHT22;6082;49.306;12.862;2023-06-10T05:03:48;16.00;99.90
12043;DHT22;6082;49.306;12.862;2023-06-10T05:06:14;16.10;99.90
12043;DHT22;6082;49.306;12.862;2023-06-10T05:08:40;16.10;99.90
12043;DHT22;6082;49.306;12.862;2023-06-10T05:11:06;16.20;99.90
12043;DHT22;6082;49.306;12.862;2023-06-10T05:13:32;16.30;99.90
12043;DHT22;6082;49.306;12.862;2023-06-10T05:15:58;16.30;99.90
12043;DHT22;6082;49.306;12.862;2023-06-10T05:18:24;16.40;99.90
12043;DHT22;6082;49.306;12.862;2023-06-10T05:20:50;16.40;99.90
12043;DHT22;6082;49.306;12.862;2023-06-10T05:23:16;16.60;99.90
12043;DHT22;6082;49.306;12.862;2023-06-10T05:25:42;16.60;99.90
12043;DHT22;6082;49.306;12.862;2023-06-10T05:28:08;16.70;99.90
12043;DHT22;6082;49.306;12.862;2023-06-10T05:30:36;16.70;99.90
12043;DHT22;6082;49.306;12.862;2023-06-10T05:33:02;16.80;99.90
12043;DHT22;6082;49.306;12.862;2023-06-10T05:35:28;16.90;99.90
12043;DHT22;6082;49.306;12.862;2023-06-10T05:37:54;17.00;99.90
12043;DHT22;6082;49.306;12.862;2023-06-10T05:40:20;17.10;99.90
12043;DHT22;6082;49.306;12.862;2023-06-10T05:42:45;17.20;99.90
12043;DHT22;6082;49.306;12.862;2023-06-10T05:45:11;17.40;99.90
12043;DHT22;6082;49.306;12.862;2023-06-10T05:47:37;17.40;99.90
12043;DHT22;6082;49.306;12.862;2023-06-10T05:50:03;17.50;99.90
12043;DHT22;6082;49.306;12.862;2023-06-10T05:52:33;17.60;99.90
12043;DHT22;6082;49.306;12.862;2023-06-10T05:54:59;17.70;99.90
12043;DHT22;6082;49.306;12.862;2023-06-10T05:57:25;17.80;99.90
12043;DHT22;6082;49.306;12.862;2023-06-10T05:59:52;17.90;99.90
12043;DHT22;6082;49.306;12.862;2023-06-10T06:02:17;17.90;99.90
12043;DHT22;6082;49.306;12.862;2023-06-10T06:04:43;18.00;99.90
12043;DHT22;6082;49.306;12.862;2023-06-10T06:07:09;18.10;99.90
12043;DHT22;6082;49.306;12.862;2023-06-10T06:09:35;18.20;99.90
12043;DHT22;6082;49.306;12.862;2023-06-10T06:12:00;18.30;99.90
12043;DHT22;6082;49.306;12.862;2023-06-10T06:14:26;18.40;99.90
12043;DHT22;6082;49.306;12.862;2023-06-10T06:16:52;18.50;99.90
12043;DHT22;6082;49.306;12.862;2023-06-10T06:19:18;18.60;99.90
12043;DHT22;6082;49.306;12.862;2023-06-10T06:21:43;18.70;99.90
12043;DHT22;6082;49.306;12.862;2023-06-10T06:24:09;18.70;99.90
12043;DHT22;6082;49.306;12.862;2023-06-10T06:26:35;18.80;99.90
12043;DHT22;6082;49.306;12.862;2023-06-10T06:29:00;18.90;99.90
12043;DHT22;6082;49.306;12.862;2023-06-10T06:31:26;18.90;99.90
12043;DHT22;6082;49.306;12.862;2023-06-10T06:33:52;18.90;99.90
12043;DHT22;6082;49.306;12.862;2023-06-10T06:36:19;18.90;99.90
12043;DHT22;6082;49.306;12.862;2023-06-10T06:38:44;19.00;99.90
12043;DHT22;6082;49.306;12.862;2023-06-10T06:41:10;19.00;99.90
12043;DHT22;6082;49.306;12.862;2023-06-10T06:43:36;19.10;99.90
12043;DHT22;6082;49.306;12.862;2023-06-10T06:46:01;19.20;99.90
12043;DHT22;6082;49.306;12.862;2023-06-10T06:48:27;19.40;99.90
12043;DHT22;6082;49.306;12.862;2023-06-10T06:50:53;19.40;99.90
12043;DHT22;6082;49.306;12.862;2023-06-10T06:53:19;19.40;99.90
12043;DHT22;6082;49.306;12.862;2023-06-10T06:55:48;19.40;99.90
12043;DHT22;6082;49.306;12.862;2023-06-10T06:58:13;19.40;99.90
12043;DHT22;6082;49.306;12.862;2023-06-10T07:00:39;19.30;99.90
12043;DHT22;6082;49.306;12.862;2023-06-10T07:03:05;19.30;99.90
12043;DHT22;6082;49.306;12.862;2023-06-10T07:05:31;19.30;99.90
12043;DHT22;6082;49.306;12.862;2023-06-10T07:07:56;19.40;99.90
12043;DHT22;6082;49.306;12.862;2023-06-10T07:10:23;19.40;99.90
12043;DHT22;6082;49.306;12.862;2023-06-10T07:12:49;19.50;99.90
12043;DHT22;6082;49.306;12.862;2023-06-10T07:15:15;19.60;99.90
12043;DHT22;6082;49.306;12.862;2023-06-10T07:17:41;19.60;99.90
12043;DHT22;6082;49.306;12.862;2023-06-10T07:20:07;19.60;99.90
12043;DHT22;6082;49.306;12.862;2023-06-10T07:22:33;19.70;99.90
12043;DHT22;6082;49.306;12.862;2023-06-10T07:24:59;19.70;99.90
12043;DHT22;6082;49.306;12.862;2023-06-10T07:27:25;19.70;99.90
12043;DHT22;6082;49.306;12.862;2023-06-10T07:29:51;19.70;99.90
12043;DHT22;6082;49.306;12.862;2023-06-10T07:32:17;19.80;99.90
12043;DHT22;6082;49.306;12.862;2023-06-10T07:34:43;19.80;99.90
12043;DHT22;6082;49.306;12.862;2023-06-10T07:37:09;19.80;99.90
12043;DHT22;6082;49.306;12.862;2023-06-10T07:39:34;20.00;99.90
12043;DHT22;6082;49.306;12.862;2023-06-10T07:42:01;20.10;99.90
12043;DHT22;6082;49.306;12.862;2023-06-10T07:44:26;20.10;99.90
12043;DHT22;6082;49.306;12.862;2023-06-10T07:46:52;20.10;99.90
12043;DHT22;6082;49.306;12.862;2023-06-10T07:49:18;20.20;99.90
12043;DHT22;6082;49.306;12.862;2023-06-10T07:51:44;20.20;99.90
12043;DHT22;6082;49.306;12.862;2023-06-10T07:54:10;20.20;99.90
12043;DHT22;6082;49.306;12.862;2023-06-10T07:56:38;20.30;99.90
12043;DHT22;6082;49.306;12.862;2023-06-10T07:59:03;20.30;99.90
12043;DHT22;6082;49.306;12.862;2023-06-10T08:01:29;20.40;99.90
12043;DHT22;6082;49.306;12.862;2023-06-10T08:03:55;20.50;99.90
12043;DHT22;6082;49.306;12.862;2023-06-10T08:06:21;20.60;99.90
12043;DHT22;6082;49.306;12.862;2023-06-10T08:08:47;20.80;99.90
12043;DHT22;6082;49.306;12.862;2023-06-10T08:11:13;20.90;99.90
12043;DHT22;6082;49.306;12.862;2023-06-10T08:13:39;21.20;99.90
12043;DHT22;6082;49.306;12.862;2023-06-10T08:16:06;21.40;99.90
12043;DHT22;6082;49.306;12.862;2023-06-10T08:18:33;21.50;99.90
12043;DHT22;6082;49.306;12.862;2023-06-10T08:20:59;21.70;99.90
12043;DHT22;6082;49.306;12.862;2023-06-10T08:23:25;21.70;99.90
12043;DHT22;6082;49.306;12.862;2023-06-10T08:25:51;21.60;99.90
12043;DHT22;6082;49.306;12.862;2023-06-10T08:28:20;21.50;99.90
12043;DHT22;6082;49.306;12.862;2023-06-10T08:30:46;21.30;99.90
12043;DHT22;6082;49.306;12.862;2023-06-10T08:33:12;21.20;99.90
12043;DHT22;6082;49.306;12.862;2023-06-10T08:35:38;21.10;99.90
12043;DHT22;6082;49.306;12.862;2023-06-10T08:38:04;21.10;99.90
12043;DHT22;6082;49.306;12.862;2023-06-10T08:40:29;21.20;99.90
12043;DHT22;6082;49.306;12.862;2023-06-10T08:43:19;21.20;99.90
12043;DHT22;6082;49.306;12.862;2023-06-10T08:45:48;21.30;99.90
12043;DHT22;6082;49.306;12.862;2023-06-10T08:48:17;21.40;99.90
12043;DHT22;6082;49.306;12.862;2023-06-10T08:50:44;21.40;99.90
12043;DHT22;6082;49.306;12.862;2023-06-10T08:53:14;21.40;99.90
12043;DHT22;6082;49.306;12.862;2023-06-10T08:55:42;21.30;99.90
12043;DHT22;6082;49.306;12.862;2023-06-10T08:58:10;21.30;99.90
12043;DHT22;6082;49.306;12.862;2023-06-10T09:00:38;21.30;99.90
12043;DHT22;6082;49.306;12.862;2023-06-10T09:03:04;21.30;99.90
12043;DHT22;6082;49.306;12.862;2023-06-10T09:05:33;21.30;99.90
12043;DHT22;6082;49.306;12.862;2023-06-10T09:08:00;21.30;99.90
12043;DHT22;6082;49.306;12.862;2023-06-10T09:10:27;21.30;99.90
12043;DHT22;6082;49.306;12.862;2023-06-10T09:12:53;21.30;99.90
12043;DHT22;6082;49.306;12.862;2023-06-10T09:15:18;21.30;99.90
12043;DHT22;6082;49.306;12.862;2023-06-10T09:17:44;21.40;99.90
12043;DHT22;6082;49.306;12.862;2023-06-10T09:20:11;21.40;99.90
12043;DHT22;6082;49.306;12.862;2023-06-10T09:22:37;21.40;99.90
12043;DHT22;6082;49.306;12.862;2023-06-10T09:25:11;21.50;99.90
12043;DHT22;6082;49.306;12.862;2023-06-10T09:27:46;21.80;99.90
12043;DHT22;6082;49.306;12.862;2023-06-10T09:30:34;22.00;99.90
12043;DHT22;6082;49.306;12.862;2023-06-10T09:33:02;22.10;99.90
12043;DHT22;6082;49.306;12.862;2023-06-10T09:35:29;22.00;99.90
12043;DHT22;6082;49.306;12.862;2023-06-10T09:37:57;22.10;99.90
12043;DHT22;6082;49.306;12.862;2023-06-10T09:40:24;22.20;99.90
12043;DHT22;6082;49.306;12.862;2023-06-10T09:42:54;22.20;99.90
12043;DHT22;6082;49.306;12.862;2023-06-10T09:45:21;22.30;99.90
12043;DHT22;6082;49.306;12.862;2023-06-10T09:47:47;22.20;99.90
12043;DHT22;6082;49.306;12.862;2023-06-10T09:50:13;22.40;99.90
12043;DHT22;6082;49.306;12.862;2023-06-10T09:52:39;22.60;99.90
12043;DHT22;6082;49.306;12.862;2023-06-10T09:55:08;22.70;99.90
12043;DHT22;6082;49.306;12.862;2023-06-10T09:57:34;22.80;99.90
12043;DHT22;6082;49.306;12.862;2023-06-10T10:00:05;22.90;99.90
12043;DHT22;6082;49.306;12.862;2023-06-10T10:02:31;23.10;99.90
12043;DHT22;6082;49.306;12.862;2023-06-10T10:05:03;23.30;99.90
12043;DHT22;6082;49.306;12.862;2023-06-10T10:07:32;23.60;99.90
12043;DHT22;6082;49.306;12.862;2023-06-10T10:09:58;23.70;99.90
12043;DHT22;6082;49.306;12.862;2023-06-10T10:12:24;23.70;99.90
12043;DHT22;6082;49.306;12.862;2023-06-10T10:14:52;23.60;99.90
12043;DHT22;6082;49.306;12.862;2023-06-10T10:17:21;23.50;99.90
12043;DHT22;6082;49.306;12.862;2023-06-10T10:19:53;23.40;99.90
12043;DHT22;6082;49.306;12.862;2023-06-10T10:22:40;23.30;99.90
12043;DHT22;6082;49.306;12.862;2023-06-10T10:25:27;23.20;99.90
12043;DHT22;6082;49.306;12.862;2023-06-10T10:28:02;23.10;99.90
12043;DHT22;6082;49.306;12.862;2023-06-10T10:30:33;22.90;99.90
12043;DHT22;6082;49.306;12.862;2023-06-10T10:33:22;23.00;99.90
12043;DHT22;6082;49.306;12.862;2023-06-10T10:35:50;23.00;99.90
12043;DHT22;6082;49.306;12.862;2023-06-10T10:38:17;23.10;99.90
12043;DHT22;6082;49.306;12.862;2023-06-10T10:40:44;23.20;99.90
12043;DHT22;6082;49.306;12.862;2023-06-10T10:43:11;23.20;99.90
12043;DHT22;6082;49.306;12.862;2023-06-10T10:45:37;23.20;99.90
12043;DHT22;6082;49.306;12.862;2023-06-10T10:48:08;23.20;99.90
12043;DHT22;6082;49.306;12.862;2023-06-10T10:50:38;23.30;99.90
12043;DHT22;6082;49.306;12.862;2023-06-10T10:53:05;23.40;99.90
12043;DHT22;6082;49.306;12.862;2023-06-10T10:55:31;23.40;99.90
12043;DHT22;6082;49.306;12.862;2023-06-10T10:57:59;23.50;99.90
12043;DHT22;6082;49.306;12.862;2023-06-10T11:00:36;23.70;99.90
12043;DHT22;6082;49.306;12.862;2023-06-10T11:07:58;23.90;99.90
12043;DHT22;6082;49.306;12.862;2023-06-10T11:12:57;24.00;99.90
12043;DHT22;6082;49.306;12.862;2023-06-10T11:15:25;24.00;99.90
12043;DHT22;6082;49.306;12.862;2023-06-10T11:21:05;23.70;99.90
12043;DHT22;6082;49.306;12.862;2023-06-10T11:23:50;23.60;99.90
12043;DHT22;6082;49.306;12.862;2023-06-10T11:31:31;23.10;99.90
12043;DHT22;6082;49.306;12.862;2023-06-10T11:34:04;23.10;99.90
12043;DHT22;6082;49.306;12.862;2023-06-10T11:36:31;23.10;99.90
12043;DHT22;6082;49.306;12.862;2023-06-10T11:39:03;23.10;99.90
12043;DHT22;6082;49.306;12.862;2023-06-10T11:41:30;23.00;99.90
12043;DHT22;6082;49.306;12.862;2023-06-10T11:43:58;22.70;99.90
12043;DHT22;6082;49.306;12.862;2023-06-10T11:46:27;22.50;99.90
12043;DHT22;6082;49.306;12.862;2023-06-10T11:48:54;22.40;99.90
12043;DHT22;6082;49.306;12.862;2023-06-10T11:51:20;22.30;99.90
12043;DHT22;6082;49.306;12.862;2023-06-10T11:53:50;22.20;99.90
12043;DHT22;6082;49.306;12.862;2023-06-10T11:56:23;22.30;99.90
12043;DHT22;6082;49.306;12.862;2023-06-10T12:01:23;22.40;99.90
12043;DHT22;6082;49.306;12.862;2023-06-10T12:04:05;22.40;99.90
12043;DHT22;6082;49.306;12.862;2023-06-10T12:06:58;22.50;99.90
12043;DHT22;6082;49.306;12.862;2023-06-10T12:09:31;22.70;99.90
12043;DHT22;6082;49.306;12.862;2023-06-10T12:12:00;22.80;99.90
12043;DHT22;6082;49.306;12.862;2023-06-10T12:14:55;23.10;99.90
12043;DHT22;6082;49.306;12.862;2023-06-10T12:19:50;23.20;99.90
12043;DHT22;6082;49.306;12.862;2023-06-10T12:22:16;23.00;99.90
12043;DHT22;6082;49.306;12.862;2023-06-10T12:24:58;23.00;99.90
12043;DHT22;6082;49.306;12.862;2023-06-10T12:27:28;22.80;99.90
12043;DHT22;6082;49.306;12.862;2023-06-10T12:29:55;22.70;99.90
12043;DHT22;6082;49.306;12.862;2023-06-10T12:32:38;22.70;99.90
12043;DHT22;6082;49.306;12.862;2023-06-10T12:35:06;22.70;99.90
12043;DHT22;6082;49.306;12.862;2023-06-10T12:37:32;22.70;99.90
12043;DHT22;6082;49.306;12.862;2023-06-10T12:40:04;22.60;99.90
12043;DHT22;6082;49.306;12.862;2023-06-10T12:42:32;22.60;99.90
12043;DHT22;6082;49.306;12.862;2023-06-10T12:45:00;22.60;99.90
12043;DHT22;6082;49.306;12.862;2023-06-10T12:47:34;22.60;99.90
12043;DHT22;6082;49.306;12.862;2023-06-10T12:50:01;22.70;99.90
12043;DHT22;6082;49.306;12.862;2023-06-10T12:52:27;22.70;99.90
12043;DHT22;6082;49.306;12.862;2023-06-10T12:54:56;22.80;99.90
12043;DHT22;6082;49.306;12.862;2023-06-10T12:57:22;22.80;99.90
12043;DHT22;6082;49.306;12.862;2023-06-10T12:59:48;22.90;99.90
12043;DHT22;6082;49.306;12.862;2023-06-10T13:02:22;23.00;99.90
12043;DHT22;6082;49.306;12.862;2023-06-10T13:04:52;23.00;99.90
12043;DHT22;6082;49.306;12.862;2023-06-10T13:07:19;23.10;99.90
12043;DHT22;6082;49.306;12.862;2023-06-10T13:09:45;23.20;99.90
12043;DHT22;6082;49.306;12.862;2023-06-10T13:12:14;23.30;99.90
12043;DHT22;6082;49.306;12.862;2023-06-10T13:14:40;23.50;99.90
12043;DHT22;6082;49.306;12.862;2023-06-10T13:17:06;23.60;99.90
12043;DHT22;6082;49.306;12.862;2023-06-10T13:19:32;23.60;99.90
12043;DHT22;6082;49.306;12.862;2023-06-10T13:21:58;23.80;99.90
12043;DHT22;6082;49.306;12.862;2023-06-10T13:24:24;23.80;99.90
12043;DHT22;6082;49.306;12.862;2023-06-10T13:26:50;24.00;99.90
12043;DHT22;6082;49.306;12.862;2023-06-10T13:29:16;24.00;99.90
12043;DHT22;6082;49.306;12.862;2023-06-10T13:31:41;23.90;99.90
12043;DHT22;6082;49.306;12.862;2023-06-10T13:34:08;23.90;99.90
12043;DHT22;6082;49.306;12.862;2023-06-10T13:36:33;23.80;99.90
12043;DHT22;6082;49.306;12.862;2023-06-10T13:38:59;23.70;99.90
12043;DHT22;6082;49.306;12.862;2023-06-10T13:41:25;23.60;99.90
12043;DHT22;6082;49.306;12.862;2023-06-10T13:43:53;23.30;99.90
12043;DHT22;6082;49.306;12.862;2023-06-10T13:46:18;23.00;99.90
12043;DHT22;6082;49.306;12.862;2023-06-10T13:48:47;22.70;99.90
12043;DHT22;6082;49.306;12.862;2023-06-10T13:51:13;22.60;99.90
12043;DHT22;6082;49.306;12.862;2023-06-10T13:53:38;22.50;99.90
12043;DHT22;6082;49.306;12.862;2023-06-10T13:56:04;22.40;99.90
12043;DHT22;6082;49.306;12.862;2023-06-10T13:58:30;22.40;99.90
12043;DHT22;6082;49.306;12.862;2023-06-10T14:00:56;22.30;99.90
12043;DHT22;6082;49.306;12.862;2023-06-10T14:03:24;22.40;99.90
12043;DHT22;6082;49.306;12.862;2023-06-10T14:05:49;22.30;99.90
12043;DHT22;6082;49.306;12.862;2023-06-10T14:08:15;22.30;99.90
12043;DHT22;6082;49.306;12.862;2023-06-10T14:10:41;22.30;99.90
12043;DHT22;6082;49.306;12.862;2023-06-10T14:13:07;22.30;99.90
12043;DHT22;6082;49.306;12.862;2023-06-10T14:15:32;22.30;99.90
12043;DHT22;6082;49.306;12.862;2023-06-10T14:17:58;22.30;99.90
12043;DHT22;6082;49.306;12.862;2023-06-10T14:20:24;22.40;99.90
12043;DHT22;6082;49.306;12.862;2023-06-10T14:22:52;22.40;99.90
12043;DHT22;6082;49.306;12.862;2023-06-10T14:25:18;22.40;99.90
12043;DHT22;6082;49.306;12.862;2023-06-10T14:27:43;22.40;99.90
12043;DHT22;6082;49.306;12.862;2023-06-10T14:30:09;22.40;99.90
12043;DHT22;6082;49.306;12.862;2023-06-10T14:32:35;22.50;99.90
12043;DHT22;6082;49.306;12.862;2023-06-10T14:35:01;22.50;99.90
12043;DHT22;6082;49.306;12.862;2023-06-10T14:37:27;22.60;99.90
12043;DHT22;6082;49.306;12.862;2023-06-10T14:39:53;22.80;99.90
12043;DHT22;6082;49.306;12.862;2023-06-10T14:42:19;23.00;99.90
12043;DHT22;6082;49.306;12.862;2023-06-10T14:44:44;23.10;99.90
12043;DHT22;6082;49.306;12.862;2023-06-10T14:47:10;23.10;99.90
12043;DHT22;6082;49.306;12.862;2023-06-10T14:49:36;23.10;99.90
12043;DHT22;6082;49.306;12.862;2023-06-10T14:52:02;23.20;99.90
12043;DHT22;6082;49.306;12.862;2023-06-10T14:54:27;23.40;99.90
12043;DHT22;6082;49.306;12.862;2023-06-10T14:56:53;23.60;99.90
12043;DHT22;6082;49.306;12.862;2023-06-10T14:59:19;23.70;99.90
12043;DHT22;6082;49.306;12.862;2023-06-10T15:01:45;23.80;99.90
12043;DHT22;6082;49.306;12.862;2023-06-10T15:04:10;24.00;99.90
12043;DHT22;6082;49.306;12.862;2023-06-10T15:06:36;24.10;99.90
12043;DHT22;6082;49.306;12.862;2023-06-10T15:09:02;24.30;99.90
12043;DHT22;6082;49.306;12.862;2023-06-10T15:11:27;24.30;99.90
12043;DHT22;6082;49.306;12.862;2023-06-10T15:13:53;24.30;99.90
12043;DHT22;6082;49.306;12.862;2023-06-10T15:16:19;24.40;99.90
12043;DHT22;6082;49.306;12.862;2023-06-10T15:18:45;24.40;99.90
12043;DHT22;6082;49.306;12.862;2023-06-10T15:21:11;24.40;99.90
12043;DHT22;6082;49.306;12.862;2023-06-10T15:23:40;24.40;99.90
12043;DHT22;6082;49.306;12.862;2023-06-10T15:26:05;24.40;99.90
12043;DHT22;6082;49.306;12.862;2023-06-10T15:28:31;24.40;99.90
12043;DHT22;6082;49.306;12.862;2023-06-10T15:30:57;24.20;99.90
12043;DHT22;6082;49.306;12.862;2023-06-10T15:33:23;24.10;99.90
12043;DHT22;6082;49.306;12.862;2023-06-10T15:35:48;24.00;99.90
12043;DHT22;6082;49.306;12.862;2023-06-10T15:38:14;23.80;99.90
12043;DHT22;6082;49.306;12.862;2023-06-10T15:40:43;23.70;99.90
12043;DHT22;6082;49.306;12.862;2023-06-10T15:43:09;23.70;99.90
12043;DHT22;6082;49.306;12.862;2023-06-10T15:45:35;23.70;99.90
12043;DHT22;6082;49.306;12.862;2023-06-10T15:48:00;23.60;99.90
12043;DHT22;6082;49.306;12.862;2023-06-10T15:50:26;23.50;99.90
12043;DHT22;6082;49.306;12.862;2023-06-10T15:52:52;23.50;99.90
12043;DHT22;6082;49.306;12.862;2023-06-10T15:55:17;23.30;99.90
12043;DHT22;6082;49.306;12.862;2023-06-10T15:57:43;23.00;99.90